createdAt,value
2018-10-20T00:00:48.396Z,8.79
2018-10-20T00:01:48.376Z,8.75
2018-10-20T00:02:48.359Z,8.72
2018-10-20T00:03:48.338Z,8.75
2018-10-20T00:04:48.306Z,8.74
2018-10-20T00:05:48.289Z,8.72
2018-10-20T00:06:48.270Z,8.72
2018-10-20T00:07:48.245Z,8.60
2018-10-20T00:08:48.224Z,8.60
2018-10-20T00:09:48.198Z,8.64
2018-10-20T00:10:48.178Z,8.61
2018-10-20T00:11:48.154Z,8.68
2018-10-20T00:12:48.134Z,8.75
2018-10-20T00:13:48.120Z,8.60
2018-10-20T00:14:48.088Z,8.66
2018-10-20T00:15:48.070Z,8.66
2018-10-20T00:16:48.053Z,8.63
2018-10-20T00:17:48.030Z,8.63
2018-10-20T00:18:48.000Z,8.44
2018-10-20T00:19:47.979Z,8.49
2018-10-20T00:20:47.956Z,8.46
2018-10-20T00:21:47.991Z,8.49
2018-10-20T00:22:47.956Z,8.49
2018-10-20T00:23:47.892Z,8.39
2018-10-20T00:24:47.870Z,8.45
2018-10-20T00:25:47.848Z,8.49
2018-10-20T00:26:47.825Z,8.46
2018-10-20T00:27:47.806Z,8.34
2018-10-20T00:28:47.782Z,8.36
2018-10-20T00:29:47.786Z,8.36
2018-10-20T00:30:47.739Z,8.31
2018-10-20T00:31:47.715Z,8.31
2018-10-20T00:32:47.693Z,8.42
2018-10-20T00:33:47.669Z,8.42
2018-10-20T00:34:47.648Z,8.45
2018-10-20T00:35:47.629Z,8.42
2018-10-20T00:36:47.612Z,8.46
2018-10-20T00:37:47.592Z,8.39
2018-10-20T00:38:47.571Z,8.44
2018-10-20T00:39:47.540Z,8.44
2018-10-20T00:40:47.515Z,8.49
2018-10-20T00:41:47.499Z,8.53
2018-10-20T00:42:47.472Z,8.53
2018-10-20T00:43:47.456Z,8.44
2018-10-20T00:44:47.439Z,8.49
2018-10-20T00:45:47.418Z,8.41
2018-10-20T00:46:47.383Z,8.34
2018-10-20T00:47:47.363Z,8.31
2018-10-20T00:48:47.338Z,8.21
2018-10-20T00:49:47.316Z,8.18
2018-10-20T00:50:47.297Z,8.27
2018-10-20T00:51:47.338Z,8.20
2018-10-20T00:52:47.250Z,8.27
2018-10-20T00:53:47.230Z,8.32
2018-10-20T00:54:47.209Z,8.32
2018-10-20T00:55:47.198Z,8.35
2018-10-20T00:56:47.167Z,8.32
2018-10-20T00:57:47.140Z,8.27
2018-10-20T00:58:47.120Z,8.21
2018-10-20T00:59:47.097Z,8.18
2018-10-20T01:00:47.074Z,8.17
2018-10-20T01:01:47.053Z,8.18
2018-10-20T01:02:47.028Z,8.16
2018-10-20T01:03:47.008Z,8.14
2018-10-20T01:04:46.985Z,8.16
2018-10-20T01:05:46.971Z,8.14
2018-10-20T01:06:46.949Z,8.14
2018-10-20T01:07:46.922Z,8.13
2018-10-20T01:08:46.901Z,8.03
2018-10-20T01:09:46.876Z,8.05
2018-10-20T01:10:46.853Z,8.08
2018-10-20T01:11:46.840Z,7.99
2018-10-20T01:12:46.808Z,8.02
2018-10-20T01:13:46.788Z,8.03
2018-10-20T01:14:46.766Z,8.01
2018-10-20T01:15:46.740Z,8.02
2018-10-20T01:16:46.722Z,8.06
2018-10-20T01:17:46.700Z,8.16
2018-10-20T01:18:46.677Z,8.13
2018-10-20T01:19:46.654Z,8.18
2018-10-20T01:20:46.631Z,8.06
2018-10-20T01:21:46.609Z,8.16
2018-10-20T01:22:46.586Z,8.17
2018-10-20T01:23:46.577Z,8.17
2018-10-20T01:24:46.545Z,8.18
2018-10-20T01:25:46.519Z,8.18
2018-10-20T01:26:46.505Z,8.13
2018-10-20T01:27:46.476Z,8.03
2018-10-20T01:28:46.464Z,8.14
2018-10-20T01:29:46.432Z,8.03
2018-10-20T01:30:46.412Z,8.05
2018-10-20T01:31:46.386Z,7.95
2018-10-20T01:32:46.370Z,7.90
2018-10-20T01:33:46.341Z,7.87
2018-10-20T01:34:46.320Z,7.96
2018-10-20T01:35:46.306Z,7.98
2018-10-20T01:36:46.274Z,7.87
2018-10-20T01:37:46.257Z,7.93
2018-10-20T01:38:46.231Z,7.90
2018-10-20T01:39:46.212Z,7.93
2018-10-20T01:40:46.201Z,7.91
2018-10-20T01:41:46.165Z,8.02
2018-10-20T01:42:46.144Z,7.99
2018-10-20T01:43:46.119Z,8.08
2018-10-20T01:44:46.098Z,8.14
2018-10-20T01:45:46.091Z,8.09
2018-10-20T01:46:46.052Z,8.18
2018-10-20T01:47:46.033Z,8.18
2018-10-20T01:48:46.018Z,8.20
2018-10-20T01:49:45.987Z,8.28
2018-10-20T01:50:45.964Z,8.24
2018-10-20T01:51:45.951Z,8.23
2018-10-20T01:52:46.023Z,8.23
2018-10-20T01:53:45.896Z,8.21
2018-10-20T01:54:45.876Z,8.31
2018-10-20T01:55:45.852Z,8.27
2018-10-20T01:56:45.828Z,8.39
2018-10-20T01:57:45.811Z,8.31
2018-10-20T01:58:45.786Z,8.31
2018-10-20T01:59:45.762Z,8.20
2018-10-20T02:00:45.740Z,8.20
2018-10-20T02:01:45.718Z,8.11
2018-10-20T02:02:45.702Z,8.14
2018-10-20T02:03:45.683Z,8.17
2018-10-20T02:04:45.653Z,8.01
2018-10-20T02:05:45.637Z,7.95
2018-10-20T02:06:45.607Z,7.99
2018-10-20T02:07:45.585Z,7.98
2018-10-20T02:08:45.561Z,7.93
2018-10-20T02:09:45.546Z,8.02
2018-10-20T02:10:45.522Z,7.93
2018-10-20T02:11:45.494Z,7.95
2018-10-20T02:12:45.473Z,7.96
2018-10-20T02:13:45.449Z,7.98
2018-10-20T02:14:45.427Z,8.01
2018-10-20T02:15:45.407Z,7.93
2018-10-20T02:16:45.382Z,7.95
2018-10-20T02:17:45.363Z,7.93
2018-10-20T02:18:45.339Z,7.91
2018-10-20T02:19:45.316Z,7.93
2018-10-20T02:20:45.291Z,7.84
2018-10-20T02:21:45.273Z,7.87
2018-10-20T02:22:45.252Z,7.85
2018-10-20T02:23:45.227Z,7.84
2018-10-20T02:24:45.207Z,7.80
2018-10-20T02:25:45.341Z,7.74
2018-10-20T02:26:45.160Z,7.87
2018-10-20T02:27:45.136Z,7.81
2018-10-20T02:28:45.123Z,7.84
2018-10-20T02:29:45.115Z,7.91
2018-10-20T02:30:45.080Z,7.91
2018-10-20T02:31:45.048Z,7.93
2018-10-20T02:32:45.046Z,7.93
2018-10-20T02:33:45.002Z,7.81
2018-10-20T02:34:44.983Z,7.85
2018-10-20T02:35:44.960Z,7.81
2018-10-20T02:36:44.936Z,7.81
2018-10-20T02:37:44.916Z,7.83
2018-10-20T02:38:44.893Z,7.87
2018-10-20T02:39:44.876Z,7.75
2018-10-20T02:40:44.846Z,7.75
2018-10-20T02:41:44.833Z,7.72
2018-10-20T02:42:44.805Z,7.77
2018-10-20T02:43:44.785Z,7.74
2018-10-20T02:44:44.849Z,7.74
2018-10-20T02:45:44.734Z,7.75
2018-10-20T02:46:44.712Z,7.77
2018-10-20T02:47:44.691Z,7.88
2018-10-20T02:48:44.665Z,7.75
2018-10-20T02:49:44.644Z,7.74
2018-10-20T02:50:44.619Z,7.70
2018-10-20T02:51:44.599Z,7.77
2018-10-20T02:52:44.575Z,7.74
2018-10-20T02:53:44.553Z,7.67
2018-10-20T02:54:44.541Z,7.69
2018-10-20T02:55:44.516Z,7.74
2018-10-20T02:56:44.488Z,7.70
2018-10-20T02:57:44.461Z,7.74
2018-10-20T02:58:44.440Z,7.61
2018-10-20T02:59:44.431Z,7.64
2018-10-20T03:00:44.395Z,7.64
2018-10-20T03:01:44.375Z,7.59
2018-10-20T03:02:44.349Z,7.51
2018-10-20T03:03:44.327Z,7.31
2018-10-20T03:04:44.307Z,7.22
2018-10-20T03:05:44.290Z,7.23
2018-10-20T03:06:44.259Z,7.19
2018-10-20T03:07:44.288Z,7.31
2018-10-20T03:08:44.213Z,7.31
2018-10-20T03:09:44.190Z,7.37
2018-10-20T03:10:44.168Z,7.32
2018-10-20T03:11:44.145Z,7.44
2018-10-20T03:12:44.123Z,7.43
2018-10-20T03:13:44.098Z,7.43
2018-10-20T03:14:44.077Z,7.51
2018-10-20T03:15:44.054Z,7.41
2018-10-20T03:16:44.034Z,7.37
2018-10-20T03:17:44.007Z,7.40
2018-10-20T03:18:43.985Z,7.41
2018-10-20T03:19:43.963Z,7.43
2018-10-20T03:20:43.940Z,7.47
2018-10-20T03:21:43.917Z,7.46
2018-10-20T03:22:43.900Z,7.44
2018-10-20T03:23:43.922Z,7.41
2018-10-20T03:24:43.851Z,7.46
2018-10-20T03:25:43.827Z,7.32
2018-10-20T03:26:43.805Z,7.46
2018-10-20T03:27:43.782Z,7.39
2018-10-20T03:28:43.757Z,7.26
2018-10-20T03:29:43.741Z,7.31
2018-10-20T03:30:43.721Z,7.26
2018-10-20T03:31:43.692Z,7.36
2018-10-20T03:32:43.669Z,7.25
2018-10-20T03:33:43.645Z,7.25
2018-10-20T03:34:43.628Z,7.21
2018-10-20T03:35:43.608Z,7.22
2018-10-20T03:36:43.575Z,7.28
2018-10-20T03:37:43.556Z,7.26
2018-10-20T03:38:43.529Z,7.14
2018-10-20T03:39:43.506Z,7.14
2018-10-20T03:40:43.484Z,7.19
2018-10-20T03:41:43.473Z,7.05
2018-10-20T03:42:43.490Z,7.08
2018-10-20T03:43:43.416Z,7.08
2018-10-20T03:44:43.392Z,7.10
2018-10-20T03:45:43.390Z,7.08
2018-10-20T03:46:43.347Z,7.03
2018-10-20T03:47:43.323Z,7.07
2018-10-20T03:48:43.301Z,7.10
2018-10-20T03:49:43.285Z,7.07
2018-10-20T03:50:43.266Z,7.14
2018-10-20T03:51:43.243Z,7.10
2018-10-20T03:52:43.926Z,7.10
2018-10-20T03:53:44.616Z,6.93
2018-10-20T03:54:43.381Z,6.92
2018-10-20T03:55:43.139Z,6.90
2018-10-20T03:56:43.139Z,6.89
2018-10-20T03:57:43.420Z,6.87
2018-10-20T03:58:44.027Z,6.90
2018-10-20T03:59:43.050Z,7.04
2018-10-20T04:00:43.065Z,6.97
2018-10-20T04:01:43.000Z,6.95
2018-10-20T04:02:43.304Z,7.03
2018-10-20T04:03:43.274Z,7.03
2018-10-20T04:04:42.930Z,6.97
2018-10-20T04:05:42.908Z,6.93
2018-10-20T04:06:42.884Z,6.97
2018-10-20T04:07:42.879Z,6.90
2018-10-20T04:08:42.838Z,6.93
2018-10-20T04:09:42.823Z,6.85
2018-10-20T04:10:42.793Z,6.85
2018-10-20T04:11:42.769Z,6.83
2018-10-20T04:12:42.747Z,6.92
2018-10-20T04:13:42.730Z,6.95
2018-10-20T04:14:42.703Z,6.95
2018-10-20T04:15:42.679Z,6.95
2018-10-20T04:16:42.653Z,6.93
2018-10-20T04:17:42.631Z,7.00
2018-10-20T04:18:42.606Z,6.97
2018-10-20T04:19:42.585Z,7.04
2018-10-20T04:20:42.561Z,7.07
2018-10-20T04:21:42.549Z,7.05
2018-10-20T04:22:42.517Z,7.11
2018-10-20T04:23:42.493Z,7.08
2018-10-20T04:24:42.471Z,7.07
2018-10-20T04:25:42.479Z,7.07
2018-10-20T04:26:42.422Z,7.07
2018-10-20T04:27:42.402Z,7.14
2018-10-20T04:28:42.379Z,7.13
2018-10-20T04:29:42.363Z,7.15
2018-10-20T04:30:42.335Z,7.11
2018-10-20T04:31:42.419Z,7.15
2018-10-20T04:32:42.291Z,7.10
2018-10-20T04:33:42.261Z,7.04
2018-10-20T04:34:42.239Z,7.05
2018-10-20T04:35:42.214Z,6.96
2018-10-20T04:36:42.191Z,7.00
2018-10-20T04:37:42.172Z,6.97
2018-10-20T04:38:42.146Z,7.01
2018-10-20T04:39:42.122Z,7.05
2018-10-20T04:40:42.102Z,7.00
2018-10-20T04:41:42.152Z,7.03
2018-10-20T04:42:42.130Z,7.00
2018-10-20T04:43:42.034Z,7.00
2018-10-20T04:44:42.014Z,7.03
2018-10-20T04:45:41.983Z,6.95
2018-10-20T04:46:41.966Z,7.00
2018-10-20T04:47:41.936Z,7.00
2018-10-20T04:48:41.913Z,7.01
2018-10-20T04:49:41.895Z,7.00
2018-10-20T04:50:41.870Z,6.97
2018-10-20T04:51:41.946Z,7.00
2018-10-20T04:52:41.832Z,6.90
2018-10-20T04:53:41.799Z,6.83
2018-10-20T04:54:41.780Z,6.75
2018-10-20T04:55:41.752Z,6.74
2018-10-20T04:56:41.729Z,6.65
2018-10-20T04:57:41.778Z,6.68
2018-10-20T04:58:41.682Z,6.67
2018-10-20T04:59:41.666Z,6.64
2018-10-20T05:00:41.634Z,6.64
2018-10-20T05:01:41.616Z,6.72
2018-10-20T05:02:41.590Z,6.78
2018-10-20T05:03:41.574Z,6.80
2018-10-20T05:04:41.543Z,6.90
2018-10-20T05:05:41.521Z,6.89
2018-10-20T05:06:41.500Z,6.85
2018-10-20T05:07:41.475Z,6.85
2018-10-20T05:08:41.449Z,6.97
2018-10-20T05:09:41.427Z,6.83
2018-10-20T05:10:41.610Z,6.89
2018-10-20T05:11:41.385Z,6.83
2018-10-20T05:12:41.358Z,6.77
2018-10-20T05:13:41.344Z,6.78
2018-10-20T05:14:41.311Z,6.85
2018-10-20T05:15:41.291Z,6.77
2018-10-20T05:16:41.273Z,6.77
2018-10-20T05:17:41.248Z,6.77
2018-10-20T05:18:41.225Z,6.80
2018-10-20T05:19:41.230Z,6.75
2018-10-20T05:20:41.171Z,6.80
2018-10-20T05:21:41.149Z,6.70
2018-10-20T05:22:41.128Z,6.74
2018-10-20T05:23:41.111Z,6.70
2018-10-20T05:24:41.085Z,6.50
2018-10-20T05:25:41.055Z,6.53
2018-10-20T05:26:41.035Z,6.54
2018-10-20T05:27:41.013Z,6.56
2018-10-20T05:28:40.987Z,6.64
2018-10-20T05:29:40.970Z,6.60
2018-10-20T05:30:40.942Z,6.52
2018-10-20T05:31:40.917Z,6.67
2018-10-20T05:32:40.898Z,6.68
2018-10-20T05:33:40.869Z,6.72
2018-10-20T05:34:40.846Z,6.65
2018-10-20T05:35:40.824Z,6.52
2018-10-20T05:36:40.800Z,6.54
2018-10-20T05:37:40.776Z,6.67
2018-10-20T05:38:40.754Z,6.68
2018-10-20T05:39:40.731Z,6.68
2018-10-20T05:40:40.705Z,6.64
2018-10-20T05:41:40.680Z,6.62
2018-10-20T05:42:40.665Z,6.67
2018-10-20T05:43:40.636Z,6.70
2018-10-20T05:44:40.612Z,6.71
2018-10-20T05:45:40.589Z,6.72
2018-10-20T05:46:40.567Z,6.60
2018-10-20T05:47:40.543Z,6.56
2018-10-20T05:48:40.527Z,6.64
2018-10-20T05:49:40.497Z,6.65
2018-10-20T05:50:40.472Z,6.57
2018-10-20T05:51:40.452Z,6.57
2018-10-20T05:52:40.425Z,6.54
2018-10-20T05:53:40.402Z,6.54
2018-10-20T05:54:40.380Z,6.53
2018-10-20T05:55:40.365Z,6.62
2018-10-20T05:56:40.372Z,6.71
2018-10-20T05:57:40.315Z,6.67
2018-10-20T05:58:40.289Z,6.67
2018-10-20T05:59:40.263Z,6.67
2018-10-20T06:00:40.239Z,6.68
2018-10-20T06:01:40.222Z,6.75
2018-10-20T06:02:40.192Z,6.77
2018-10-20T06:03:40.184Z,6.75
2018-10-20T06:04:40.151Z,6.82
2018-10-20T06:05:40.123Z,6.80
2018-10-20T06:06:40.096Z,6.89
2018-10-20T06:07:40.080Z,6.80
2018-10-20T06:08:40.168Z,6.83
2018-10-20T06:09:40.029Z,6.89
2018-10-20T06:10:40.049Z,6.96
2018-10-20T06:11:40.038Z,6.92
2018-10-20T06:12:39.958Z,6.97
2018-10-20T06:13:39.937Z,6.97
2018-10-20T06:14:39.911Z,6.95
2018-10-20T06:15:39.887Z,7.08
2018-10-20T06:16:39.872Z,7.21
2018-10-20T06:17:39.840Z,7.23
2018-10-20T06:18:39.827Z,7.29
2018-10-20T06:19:39.899Z,7.32
2018-10-20T06:20:39.772Z,7.47
2018-10-20T06:21:39.753Z,7.43
2018-10-20T06:22:39.727Z,7.44
2018-10-20T06:23:39.705Z,7.50
2018-10-20T06:24:39.678Z,7.46
2018-10-20T06:25:39.657Z,7.48
2018-10-20T06:26:39.632Z,7.43
2018-10-20T06:27:39.611Z,7.50
2018-10-20T06:28:39.585Z,7.44
2018-10-20T06:29:39.563Z,7.46
2018-10-20T06:30:39.541Z,7.43
2018-10-20T06:31:39.518Z,7.43
2018-10-20T06:32:39.501Z,7.44
2018-10-20T06:33:39.470Z,7.55
2018-10-20T06:34:39.449Z,7.56
2018-10-20T06:35:39.425Z,7.66
2018-10-20T06:36:39.400Z,7.69
2018-10-20T06:37:39.379Z,7.70
2018-10-20T06:38:39.375Z,7.72
2018-10-20T06:39:39.332Z,7.80
2018-10-20T06:40:39.309Z,7.83
2018-10-20T06:41:39.460Z,7.95
2018-10-20T06:42:39.263Z,7.88
2018-10-20T06:43:39.249Z,7.99
2018-10-20T06:44:39.219Z,7.91
2018-10-20T06:45:39.201Z,7.95
2018-10-20T06:46:39.177Z,8.13
2018-10-20T06:47:39.388Z,8.13
2018-10-20T06:48:39.135Z,8.17
2018-10-20T06:49:39.108Z,8.21
2018-10-20T06:50:39.094Z,8.27
2018-10-20T06:51:39.139Z,8.24
2018-10-20T06:52:39.047Z,8.31
2018-10-20T06:53:39.012Z,8.32
2018-10-20T06:54:38.993Z,8.35
2018-10-20T06:55:38.969Z,8.32
2018-10-20T06:56:38.944Z,8.45
2018-10-20T06:57:38.923Z,8.39
2018-10-20T06:58:38.992Z,8.46
2018-10-20T06:59:39.010Z,8.49
2018-10-20T07:00:38.855Z,8.49
2018-10-20T07:01:38.840Z,8.66
2018-10-20T07:02:38.813Z,8.63
2018-10-20T07:03:38.791Z,8.77
2018-10-20T07:04:38.767Z,8.82
2018-10-20T07:05:38.743Z,8.89
2018-10-20T07:06:38.731Z,8.89
2018-10-20T07:07:38.700Z,8.90
2018-10-20T07:08:38.692Z,9.03
2018-10-20T07:09:38.655Z,9.12
2018-10-20T07:10:38.642Z,9.19
2018-10-20T07:11:38.612Z,9.16
2018-10-20T07:12:38.589Z,9.11
2018-10-20T07:13:38.567Z,9.16
2018-10-20T07:14:38.581Z,9.31
2018-10-20T07:15:38.539Z,9.37
2018-10-20T07:16:38.503Z,9.45
2018-10-20T07:17:38.533Z,9.44
2018-10-20T07:18:38.458Z,9.58
2018-10-20T07:19:38.502Z,9.64
2018-10-20T07:20:38.419Z,9.69
2018-10-20T07:21:38.402Z,9.72
2018-10-20T07:22:38.374Z,9.77
2018-10-20T07:23:38.350Z,9.77
2018-10-20T07:24:38.330Z,9.85
2018-10-20T07:25:38.312Z,9.80
2018-10-20T07:26:38.286Z,9.81
2018-10-20T07:27:38.264Z,9.94
2018-10-20T07:28:38.243Z,9.92
2018-10-20T07:29:38.221Z,10.03
2018-10-20T07:30:38.203Z,9.97
2018-10-20T07:31:38.182Z,9.99
2018-10-20T07:32:38.160Z,10.02
2018-10-20T07:33:38.138Z,10.09
2018-10-20T07:34:38.128Z,10.07
2018-10-20T07:35:38.095Z,10.09
2018-10-20T07:36:38.073Z,10.03
2018-10-20T07:37:38.053Z,10.12
2018-10-20T07:38:38.028Z,10.15
2018-10-20T07:39:38.191Z,10.13
2018-10-20T07:40:37.985Z,10.09
2018-10-20T07:41:37.965Z,10.21
2018-10-20T07:42:37.950Z,10.20
2018-10-20T07:43:37.928Z,10.10
2018-10-20T07:44:37.902Z,10.30
2018-10-20T07:45:37.947Z,10.23
2018-10-20T07:46:37.863Z,10.34
2018-10-20T07:47:37.852Z,10.34
2018-10-20T07:48:37.829Z,10.43
2018-10-20T07:49:37.806Z,10.49
2018-10-20T07:50:37.786Z,10.51
2018-10-20T07:51:37.758Z,10.61
2018-10-20T07:52:37.769Z,10.71
2018-10-20T07:53:37.717Z,10.72
2018-10-20T07:54:37.706Z,10.71
2018-10-20T07:55:37.682Z,10.80
2018-10-20T07:56:37.650Z,10.83
2018-10-20T07:57:37.628Z,10.90
2018-10-20T07:58:37.609Z,10.94
2018-10-20T07:59:37.597Z,11.02
2018-10-20T08:00:37.567Z,11.02
2018-10-20T08:01:37.545Z,11.12
2018-10-20T08:02:37.527Z,11.12
2018-10-20T08:03:37.538Z,11.20
2018-10-20T08:04:37.495Z,11.23
2018-10-20T08:05:37.460Z,11.25
2018-10-20T08:06:37.483Z,11.40
2018-10-20T08:07:37.421Z,11.49
2018-10-20T08:08:37.404Z,11.48
2018-10-20T08:09:37.453Z,11.55
2018-10-20T08:10:37.418Z,11.59
2018-10-20T08:11:37.339Z,11.53
2018-10-20T08:12:37.335Z,11.63
2018-10-20T08:13:37.305Z,11.77
2018-10-20T08:14:37.279Z,11.73
2018-10-20T08:15:37.323Z,11.74
2018-10-20T08:16:37.249Z,11.73
2018-10-20T08:17:37.227Z,11.74
2018-10-20T08:18:37.202Z,11.76
2018-10-20T08:19:37.179Z,11.78
2018-10-20T08:20:37.160Z,11.67
2018-10-20T08:21:37.152Z,11.67
2018-10-20T08:22:37.221Z,11.73
2018-10-20T08:23:37.106Z,11.62
2018-10-20T08:24:37.087Z,11.63
2018-10-20T08:25:37.060Z,11.58
2018-10-20T08:26:37.036Z,11.73
2018-10-20T08:27:37.016Z,11.62
2018-10-20T08:28:36.995Z,11.53
2018-10-20T08:29:36.982Z,11.56
2018-10-20T08:30:36.992Z,11.59
2018-10-20T08:31:36.937Z,11.60
2018-10-20T08:32:36.919Z,11.44
2018-10-20T08:33:36.893Z,11.63
2018-10-20T08:34:36.882Z,11.53
2018-10-20T08:35:36.936Z,11.65
2018-10-20T08:36:36.837Z,11.62
2018-10-20T08:37:36.868Z,11.52
2018-10-20T08:38:36.793Z,11.58
2018-10-20T08:39:36.782Z,11.59
2018-10-20T08:40:36.758Z,11.67
2018-10-20T08:41:36.749Z,11.58
2018-10-20T08:42:36.766Z,11.68
2018-10-20T08:43:36.722Z,11.74
2018-10-20T08:44:36.674Z,11.67
2018-10-20T08:45:36.654Z,11.77
2018-10-20T08:46:36.632Z,11.83
2018-10-20T08:47:36.615Z,11.97
2018-10-20T08:48:36.597Z,12.12
2018-10-20T08:49:36.571Z,12.33
2018-10-20T08:50:36.557Z,12.48
2018-10-20T08:51:36.540Z,12.75
2018-10-20T08:52:36.513Z,13.06
2018-10-20T08:53:36.493Z,13.39
2018-10-20T08:54:36.586Z,13.71
2018-10-20T08:55:36.455Z,13.87
2018-10-20T08:56:36.432Z,14.01
2018-10-20T08:57:36.473Z,14.34
2018-10-20T08:58:36.415Z,14.45
2018-10-20T08:59:36.375Z,14.74
2018-10-20T09:00:36.355Z,14.97
2018-10-20T09:01:36.337Z,15.17
2018-10-20T09:02:36.317Z,15.27
2018-10-20T09:03:36.299Z,15.41
2018-10-20T09:04:36.343Z,15.48
2018-10-20T09:05:36.271Z,15.76
2018-10-20T09:06:36.250Z,16.10
2018-10-20T09:07:36.229Z,16.31
2018-10-20T09:08:36.209Z,16.50
2018-10-20T09:09:36.262Z,16.29
2018-10-20T09:10:36.172Z,16.29
2018-10-20T09:11:36.151Z,16.49
2018-10-20T09:12:36.130Z,16.40
2018-10-20T09:13:36.126Z,15.94
2018-10-20T09:14:36.095Z,15.73
2018-10-20T09:15:36.079Z,15.59
2018-10-20T09:16:36.061Z,15.43
2018-10-20T09:17:36.038Z,15.35
2018-10-20T09:18:36.024Z,15.47
2018-10-20T09:19:36.049Z,15.36
2018-10-20T09:20:35.982Z,15.18
2018-10-20T09:21:35.967Z,15.27
2018-10-20T09:22:35.953Z,15.26
2018-10-20T09:23:35.955Z,15.48
2018-10-20T09:24:36.022Z,15.62
2018-10-20T09:25:35.996Z,15.75
2018-10-20T09:26:35.884Z,15.90
2018-10-20T09:27:35.865Z,16.00
2018-10-20T09:28:35.851Z,16.22
2018-10-20T09:29:35.830Z,16.26
2018-10-20T09:30:35.822Z,16.18
2018-10-20T09:31:35.807Z,16.31
2018-10-20T09:32:35.782Z,16.61
2018-10-20T09:33:35.765Z,16.86
2018-10-20T09:34:35.750Z,17.09
2018-10-20T09:35:35.826Z,17.22
2018-10-20T09:36:35.718Z,17.27
2018-10-20T09:37:35.801Z,17.23
2018-10-20T09:38:38.309Z,17.46
2018-10-20T09:39:35.672Z,17.68
2018-10-20T09:40:35.658Z,17.93
2018-10-20T09:41:35.641Z,17.91
2018-10-20T09:42:35.624Z,18.05
2018-10-20T09:43:35.624Z,18.23
2018-10-20T09:44:35.604Z,18.28
2018-10-20T09:45:35.579Z,18.68
2018-10-20T09:46:35.564Z,19.16
2018-10-20T09:47:35.554Z,19.42
2018-10-20T09:48:35.622Z,19.44
2018-10-20T09:49:35.535Z,19.34
2018-10-20T09:50:35.697Z,19.16
2018-10-20T09:51:35.505Z,19.09
2018-10-20T09:52:35.473Z,19.19
2018-10-20T09:53:35.469Z,19.17
2018-10-20T09:54:35.455Z,19.15
2018-10-20T09:55:35.449Z,19.57
2018-10-20T09:56:35.520Z,19.92
2018-10-20T09:57:35.408Z,19.92
2018-10-20T09:58:35.398Z,20.12
2018-10-20T09:59:35.440Z,20.22
2018-10-20T10:00:35.388Z,20.53
2018-10-20T10:01:35.391Z,20.36
2018-10-20T10:02:35.398Z,20.19
2018-10-20T10:03:35.482Z,20.19
2018-10-20T10:04:35.338Z,20.37
2018-10-20T10:05:35.307Z,20.34
2018-10-20T10:06:35.282Z,20.19
2018-10-20T10:07:35.279Z,20.36
2018-10-20T10:08:35.397Z,20.77
2018-10-20T10:09:35.267Z,21.10
2018-10-20T10:10:35.238Z,21.30
2018-10-20T10:11:35.223Z,21.04
2018-10-20T10:12:35.203Z,21.19
2018-10-20T10:13:35.215Z,20.89
2018-10-20T10:14:35.303Z,20.27
2018-10-20T10:15:35.162Z,20.11
2018-10-20T10:16:35.207Z,19.79
2018-10-20T10:17:35.385Z,20.39
2018-10-20T10:18:35.120Z,21.11
2018-10-20T10:19:35.111Z,21.11
2018-10-20T10:20:35.110Z,20.56
2018-10-20T10:21:35.098Z,20.39
2018-10-20T10:22:35.066Z,20.30
2018-10-20T10:23:35.059Z,20.27
2018-10-20T10:24:35.046Z,20.36
2018-10-20T10:25:35.130Z,20.50
2018-10-20T10:26:35.015Z,20.58
2018-10-20T10:27:35.004Z,20.08
2018-10-20T10:28:34.990Z,19.47
2018-10-20T10:29:34.984Z,19.64
2018-10-20T10:30:34.966Z,19.99
2018-10-20T10:31:34.959Z,20.24
2018-10-20T10:32:34.938Z,20.40
2018-10-20T10:33:34.929Z,21.07
2018-10-20T10:34:34.919Z,21.10
2018-10-20T10:35:34.917Z,20.74
2018-10-20T10:36:34.900Z,20.75
2018-10-20T10:37:34.877Z,20.88
2018-10-20T10:38:34.883Z,20.55
2018-10-20T10:39:34.855Z,21.07
2018-10-20T10:40:34.842Z,21.51
2018-10-20T10:41:34.827Z,21.66
2018-10-20T10:42:34.817Z,21.68
2018-10-20T10:43:34.798Z,21.65
2018-10-20T10:44:34.792Z,21.38
2018-10-20T10:45:34.773Z,21.13
2018-10-20T10:46:34.769Z,21.51
2018-10-20T10:47:34.749Z,21.50
2018-10-20T10:48:34.761Z,21.26
2018-10-20T10:49:34.726Z,21.13
2018-10-20T10:50:34.715Z,21.35
2018-10-20T10:51:34.733Z,21.35
2018-10-20T10:52:34.690Z,21.56
2018-10-20T10:53:34.681Z,21.43
2018-10-20T10:54:34.657Z,21.30
2018-10-20T10:55:34.654Z,21.28
2018-10-20T10:56:34.644Z,21.10
2018-10-20T10:57:34.618Z,20.86
2018-10-20T10:58:34.604Z,20.75
2018-10-20T10:59:34.599Z,20.89
2018-10-20T11:00:34.587Z,21.01
2018-10-20T11:01:34.570Z,21.08
2018-10-20T11:02:34.650Z,21.08
2018-10-20T11:03:34.539Z,20.89
2018-10-20T11:04:34.529Z,20.66
2018-10-20T11:05:34.521Z,20.95
2018-10-20T11:06:34.499Z,21.43
2018-10-20T11:07:34.482Z,21.78
2018-10-20T11:08:34.469Z,22.28
2018-10-20T11:09:34.463Z,22.08
2018-10-20T11:10:34.459Z,22.23
2018-10-20T11:11:34.429Z,22.43
2018-10-20T11:12:34.418Z,22.70
2018-10-20T11:13:34.403Z,22.73
2018-10-20T11:14:34.389Z,22.73
2018-10-20T11:15:34.377Z,22.37
2018-10-20T11:16:34.409Z,22.16
2018-10-20T11:17:34.353Z,22.26
2018-10-20T11:18:34.338Z,22.67
2018-10-20T11:19:34.328Z,22.77
2018-10-20T11:20:34.307Z,22.84
2018-10-20T11:21:34.295Z,23.16
2018-10-20T11:22:34.299Z,23.40
2018-10-20T11:23:34.267Z,23.07
2018-10-20T11:24:34.272Z,22.70
2018-10-20T11:25:34.243Z,21.85
2018-10-20T11:26:34.245Z,21.37
2018-10-20T11:27:34.213Z,21.11
2018-10-20T11:28:34.197Z,21.05
2018-10-20T11:29:34.242Z,20.86
2018-10-20T11:30:34.174Z,20.78
2018-10-20T11:31:34.167Z,21.05
2018-10-20T11:32:34.248Z,21.25
2018-10-20T11:33:34.133Z,21.20
2018-10-20T11:34:34.124Z,21.43
2018-10-20T11:35:34.115Z,21.85
2018-10-20T11:36:34.173Z,22.22
2018-10-20T11:37:34.091Z,21.99
2018-10-20T11:38:34.066Z,21.35
2018-10-20T11:39:34.060Z,20.75
2018-10-20T11:40:34.037Z,20.39
2018-10-20T11:41:34.015Z,20.18
2018-10-20T11:42:34.003Z,20.32
2018-10-20T11:43:33.989Z,20.32
2018-10-20T11:44:33.973Z,20.34
2018-10-20T11:45:33.960Z,20.53
2018-10-20T11:46:33.943Z,20.68
2018-10-20T11:47:33.928Z,20.67
2018-10-20T11:48:33.916Z,20.29
2018-10-20T11:49:33.902Z,20.24
2018-10-20T11:50:33.906Z,20.07
2018-10-20T11:51:33.889Z,20.24
2018-10-20T11:52:33.859Z,20.37
2018-10-20T11:53:33.853Z,20.36
2018-10-20T11:54:33.830Z,20.17
2018-10-20T11:55:33.817Z,19.97
2018-10-20T11:56:33.799Z,19.97
2018-10-20T11:57:33.805Z,20.00
2018-10-20T11:58:33.773Z,20.10
2018-10-20T11:59:33.756Z,19.92
2018-10-20T12:00:33.759Z,19.79
2018-10-20T12:01:33.734Z,19.67
2018-10-20T12:02:33.719Z,19.67
2018-10-20T12:03:33.697Z,19.63
2018-10-20T12:04:33.681Z,19.84
2018-10-20T12:05:33.672Z,19.89
2018-10-20T12:06:33.675Z,20.04
2018-10-20T12:07:33.648Z,20.17
2018-10-20T12:08:33.632Z,20.14
2018-10-20T12:09:33.612Z,20.18
2018-10-20T12:10:33.594Z,20.34
2018-10-20T12:11:33.590Z,20.07
2018-10-20T12:12:33.575Z,19.77
2018-10-20T12:13:33.560Z,19.74
2018-10-20T12:14:33.543Z,19.48
2018-10-20T12:15:33.520Z,19.59
2018-10-20T12:16:33.521Z,19.34
2018-10-20T12:17:33.491Z,19.01
2018-10-20T12:18:33.477Z,18.85
2018-10-20T12:19:33.506Z,18.92
2018-10-20T12:20:33.444Z,18.85
2018-10-20T12:21:33.435Z,18.81
2018-10-20T12:22:33.433Z,18.81
2018-10-20T12:23:33.409Z,18.89
2018-10-20T12:24:33.396Z,18.79
2018-10-20T12:25:33.386Z,18.78
2018-10-20T12:26:33.364Z,18.78
2018-10-20T12:27:33.341Z,18.71
2018-10-20T12:28:33.333Z,18.71
2018-10-20T12:29:33.319Z,18.73
2018-10-20T12:30:33.297Z,18.60
2018-10-20T12:31:33.285Z,18.39
2018-10-20T12:32:33.267Z,18.24
2018-10-20T12:33:33.286Z,18.23
2018-10-20T12:34:33.240Z,18.27
2018-10-20T12:35:33.232Z,18.08
2018-10-20T12:36:33.209Z,18.09
2018-10-20T12:37:33.192Z,18.12
2018-10-20T12:38:33.183Z,18.11
2018-10-20T12:39:33.172Z,18.02
2018-10-20T12:40:33.152Z,17.90
2018-10-20T12:41:33.131Z,18.02
2018-10-20T12:42:33.116Z,18.00
2018-10-20T12:43:33.111Z,18.06
2018-10-20T12:44:33.088Z,18.09
2018-10-20T12:45:33.080Z,18.26
2018-10-20T12:46:33.054Z,18.28
2018-10-20T12:47:33.047Z,18.28
2018-10-20T12:48:33.173Z,18.18
2018-10-20T12:49:33.024Z,18.12
2018-10-20T12:50:32.996Z,18.09
2018-10-20T12:51:32.984Z,18.18
2018-10-20T12:52:32.980Z,18.16
2018-10-20T12:53:32.972Z,18.24
2018-10-20T12:54:32.934Z,18.28
2018-10-20T12:55:32.929Z,18.18
2018-10-20T12:56:32.912Z,18.15
2018-10-20T12:57:32.888Z,18.05
2018-10-20T12:58:32.880Z,17.90
2018-10-20T12:59:32.859Z,17.86
2018-10-20T13:00:32.845Z,17.72
2018-10-20T13:01:32.851Z,17.90
2018-10-20T13:02:32.815Z,17.98
2018-10-20T13:03:32.807Z,17.88
2018-10-20T13:04:32.784Z,17.88
2018-10-20T13:05:32.784Z,17.87
2018-10-20T13:06:32.759Z,17.91
2018-10-20T13:07:32.758Z,18.00